Time;durP1;ratioP1;P1;durP2;ratioP2;P2;SDS_P1;SDS_P2;PMS_P1;PMS_P2;Temp;Humidity;BMP_temperature;BMP_pressure;BME280_temperature;BME280_humidity;BME280_pressure;Samples;Min_cycle;Max_cycle;Signal;HPM_P1;HPM_P2
2021/01/09 00:04:40;;;;;;;1.10;1.00;;;19.00;54.70;;;;;;10485165;28;20211;-56
2021/01/09 00:10:05;;;;;;;1.20;1.00;;;19.00;54.80;;;;;;10481734;28;20740;-55
2021/01/09 00:15:26;;;;;;;0.80;0.73;;;19.00;54.80;;;;;;10479479;28;20216;-52
2021/01/09 00:20:49;;;;;;;1.20;0.90;;;19.00;54.80;;;;;;10477059;28;20623;-55
2021/01/09 00:26:11;;;;;;;0.80;0.80;;;18.90;54.80;;;;;;10481389;28;20215;-59
2021/01/09 00:31:33;;;;;;;0.70;0.70;;;18.90;54.90;;;;;;10474041;28;20319;-57
2021/01/09 00:36:56;;;;;;;1.20;0.63;;;18.90;54.90;;;;;;10478687;28;20224;-56
2021/01/09 00:42:17;;;;;;;0.90;0.70;;;18.90;54.90;;;;;;10479545;28;20188;-53
2021/01/09 00:47:39;;;;;;;0.70;0.70;;;18.90;55.00;;;;;;10477729;28;20217;-54
2021/01/09 00:53:01;;;;;;;1.07;0.80;;;18.90;55.10;;;;;;10478152;28;20216;-57
2021/01/09 00:58:23;;;;;;;0.80;0.80;;;18.90;55.10;;;;;;10477631;28;20587;-57
2021/01/09 01:03:45;;;;;;;0.90;0.90;;;18.80;55.10;;;;;;10470450;28;20197;-57
2021/01/09 01:09:07;;;;;;;1.20;0.80;;;18.80;55.10;;;;;;10476178;28;20196;-55
2021/01/09 01:14:29;;;;;;;0.97;0.80;;;18.80;55.10;;;;;;10475524;28;20703;-53
2021/01/09 01:19:50;;;;;;;0.40;0.40;;;18.80;55.10;;;;;;10473908;28;20686;-58
2021/01/09 01:25:13;;;;;;;0.83;0.80;;;18.80;55.20;;;;;;10476896;28;20490;-60
2021/01/09 01:30:35;;;;;;;0.83;0.70;;;18.80;55.20;;;;;;10479151;28;20212;-52
2021/01/09 01:35:57;;;;;;;0.60;0.60;;;18.80;55.30;;;;;;10476433;28;20208;-51
2021/01/09 01:41:20;;;;;;;1.33;0.80;;;18.80;55.30;;;;;;10480975;28;20390;-52
2021/01/09 01:46:41;;;;;;;0.80;0.70;;;18.80;55.40;;;;;;10492571;28;20258;-52
2021/01/09 01:52:03;;;;;;;1.00;0.60;;;18.80;55.30;;;;;;10495340;28;20223;-52
2021/01/09 01:57:26;;;;;;;0.80;0.70;;;18.70;55.30;;;;;;10514568;22;20231;-44
2021/01/09 02:02:48;;;;;;;0.70;0.70;;;18.70;55.40;;;;;;10494173;28;20185;-45
2021/01/09 02:08:12;;;;;;;1.60;0.70;;;18.70;55.40;;;;;;10471471;28;20219;-45
2021/01/09 02:13:43;;;;;;;0.70;0.70;;;18.70;55.40;;;;;;10463678;28;20296;-45
2021/01/09 02:19:08;;;;;;;0.60;0.60;;;18.70;55.40;;;;;;10446515;28;20316;-45
2021/01/09 02:24:31;;;;;;;0.70;0.50;;;18.70;55.50;;;;;;10454988;28;20220;-45
2021/01/09 02:29:57;;;;;;;0.70;0.70;;;18.70;55.50;;;;;;10453605;28;20196;-45
2021/01/09 02:35:21;;;;;;;0.60;0.60;;;18.70;55.60;;;;;;10453302;28;20216;-45
2021/01/09 02:40:44;;;;;;;0.70;0.60;;;18.70;55.60;;;;;;10479012;28;20192;-45
2021/01/09 02:46:06;;;;;;;0.80;0.60;;;18.70;55.60;;;;;;10490865;28;20702;-45
2021/01/09 02:51:28;;;;;;;0.90;0.70;;;18.70;55.60;;;;;;10489538;28;20219;-45
2021/01/09 02:56:50;;;;;;;0.57;0.57;;;18.60;55.60;;;;;;10451813;28;20229;-45
2021/01/09 03:02:12;;;;;;;0.67;0.50;;;18.70;55.60;;;;;;10451300;28;20204;-44
2021/01/09 03:07:33;;;;;;;0.70;0.70;;;18.60;55.60;;;;;;10455147;28;20216;-45
2021/01/09 03:12:56;;;;;;;0.67;0.67;;;18.60;55.60;;;;;;10472755;28;20262;-47
2021/01/09 03:18:17;;;;;;;0.70;0.60;;;18.60;55.60;;;;;;10456486;28;20217;-45
2021/01/09 03:23:39;;;;;;;0.50;0.50;;;18.60;55.70;;;;;;10453072;28;20193;-45
2021/01/09 03:29:01;;;;;;;0.63;0.57;;;18.60;55.70;;;;;;10456920;28;20212;-46
2021/01/09 03:34:23;;;;;;;0.60;0.60;;;18.60;55.70;;;;;;10495574;28;20219;-45
2021/01/09 03:39:44;;;;;;;0.70;0.67;;;18.60;55.70;;;;;;10420333;28;20194;-47
2021/01/09 03:45:09;;;;;;;0.60;0.60;;;18.50;55.70;;;;;;10459646;28;20694;-45
2021/01/09 03:50:30;;;;;;;0.60;0.60;;;18.60;55.80;;;;;;10460952;28;20197;-45
2021/01/09 03:55:52;;;;;;;0.40;0.40;;;18.60;55.80;;;;;;10460055;28;20221;-44
2021/01/09 04:01:14;;;;;;;0.50;0.50;;;18.60;55.80;;;;;;10478658;28;20783;-45
2021/01/09 04:06:36;;;;;;;0.70;0.70;;;18.60;55.80;;;;;;10483782;28;20220;-44
2021/01/09 04:11:57;;;;;;;0.50;0.50;;;18.50;55.70;;;;;;10499768;28;20218;-45
2021/01/09 04:17:20;;;;;;;0.60;0.60;;;18.50;55.80;;;;;;10470042;28;20217;-45
2021/01/09 04:22:41;;;;;;;0.80;0.70;;;18.50;55.80;;;;;;10490425;28;20188;-44
2021/01/09 04:28:03;;;;;;;0.50;0.50;;;18.50;55.90;;;;;;10496973;28;20212;-46
2021/01/09 04:33:26;;;;;;;0.50;0.50;;;18.50;55.80;;;;;;10467397;28;20273;-45
2021/01/09 04:38:47;;;;;;;0.77;0.67;;;18.50;55.90;;;;;;10497800;28;20209;-45
2021/01/09 04:44:11;;;;;;;0.70;0.67;;;18.50;55.90;;;;;;10486428;28;20212;-46
2021/01/09 04:49:34;;;;;;;0.73;0.73;;;18.50;55.80;;;;;;10453853;28;20197;-48
2021/01/09 04:54:56;;;;;;;0.50;0.50;;;18.50;55.90;;;;;;10440451;28;20599;-45
2021/01/09 05:00:19;;;;;;;0.87;0.53;;;18.50;55.90;;;;;;10485128;28;20203;-45
2021/01/09 05:05:41;;;;;;;0.60;0.60;;;18.50;55.90;;;;;;10480631;28;20214;-47
2021/01/09 05:11:04;;;;;;;0.70;0.67;;;18.50;55.90;;;;;;10447200;28;20217;-46
2021/01/09 05:16:26;;;;;;;0.60;0.60;;;18.50;55.90;;;;;;10473738;28;20296;-44
2021/01/09 05:21:48;;;;;;;0.60;0.60;;;18.50;55.90;;;;;;10492263;28;20185;-45
2021/01/09 05:27:10;;;;;;;0.70;0.70;;;18.40;56.00;;;;;;10494759;28;20216;-45
2021/01/09 05:32:31;;;;;;;0.70;0.70;;;18.50;56.00;;;;;;10485548;28;20216;-45
2021/01/09 05:37:54;;;;;;;0.70;0.70;;;18.50;55.90;;;;;;10460800;28;20595;-45
2021/01/09 05:43:15;;;;;;;0.70;0.70;;;18.50;56.00;;;;;;10474088;28;20194;-45
2021/01/09 05:48:37;;;;;;;1.37;0.70;;;18.50;56.00;;;;;;10454769;28;20224;-45
2021/01/09 05:54:00;;;;;;;0.67;0.63;;;18.50;55.90;;;;;;10417944;28;20221;-45
2021/01/09 05:59:26;;;;;;;0.50;0.50;;;18.50;56.00;;;;;;10454155;28;20212;-44
2021/01/09 06:04:50;;;;;;;0.60;0.60;;;18.50;56.00;;;;;;10456328;28;20346;-45
2021/01/09 06:10:15;;;;;;;0.83;0.70;;;18.50;56.00;;;;;;10461412;28;20201;-46
2021/01/09 06:15:41;;;;;;;0.70;0.60;;;18.50;56.00;;;;;;10480162;28;20314;-47
2021/01/09 06:21:04;;;;;;;1.00;0.80;;;18.50;56.00;;;;;;10490200;28;20615;-48
2021/01/09 06:26:28;;;;;;;0.87;0.73;;;18.50;56.00;;;;;;10494135;28;20263;-44
2021/01/09 06:31:53;;;;;;;1.00;0.80;;;18.50;56.00;;;;;;10462905;28;20212;-44
2021/01/09 06:37:21;;;;;;;0.60;0.60;;;18.50;56.00;;;;;;10458792;28;20217;-45
2021/01/09 06:42:48;;;;;;;1.83;1.03;;;18.50;56.00;;;;;;10453489;28;20188;-44
2021/01/09 06:48:11;;;;;;;1.10;1.00;;;18.50;56.00;;;;;;10453250;28;20217;-46
2021/01/09 06:53:33;;;;;;;0.93;0.93;;;18.50;56.00;;;;;;10448998;28;20300;-44
2021/01/09 06:58:55;;;;;;;1.00;0.90;;;18.50;56.00;;;;;;10453852;28;20225;-45
2021/01/09 07:04:48;;;;;;;1.40;1.13;;;18.50;56.00;;;;;;10479667;28;20197;-47
2021/01/09 07:10:18;;;;;;;1.20;1.00;;;18.50;56.00;;;;;;10422795;28;20220;-46
2021/01/09 07:15:41;;;;;;;1.30;1.20;;;18.50;56.00;;;;;;10461255;28;20749;-45
2021/01/09 07:21:04;;;;;;;1.10;1.00;;;18.50;56.00;;;;;;10491224;28;20203;-45
2021/01/09 07:26:28;;;;;;;1.40;1.30;;;18.50;56.00;;;;;;10477858;28;20208;-44
2021/01/09 07:31:52;;;;;;;1.00;1.00;;;18.50;55.80;;;;;;10466012;28;20231;-45
2021/01/09 07:37:14;;;;;;;1.10;1.00;;;18.50;55.80;;;;;;10491959;28;20223;-44
2021/01/09 07:42:36;;;;;;;1.53;1.00;;;18.50;55.90;;;;;;10455872;28;20553;-45
2021/01/09 07:47:58;;;;;;;1.00;1.00;;;18.50;55.80;;;;;;10410699;28;20214;-45
2021/01/09 07:53:27;;;;;;;1.70;1.20;;;18.50;55.80;;;;;;10462889;28;20216;-48
2021/01/09 07:58:48;;;;;;;1.30;1.20;;;18.50;55.80;;;;;;10516067;22;20653;-54
2021/01/09 08:04:12;;;;;;;1.20;1.10;;;18.50;56.00;;;;;;10483946;28;20193;-52
2021/01/09 08:09:33;;;;;;;1.67;1.30;;;18.50;55.90;;;;;;10465856;28;20756;-52
2021/01/09 08:14:58;;;;;;;0.90;0.90;;;18.50;55.90;;;;;;10491514;28;20220;-57
2021/01/09 08:20:21;;;;;;;1.20;1.10;;;18.50;55.90;;;;;;10495638;28;20287;-52
2021/01/09 08:25:43;;;;;;;1.83;1.27;;;18.50;55.80;;;;;;10498121;28;20220;-54
2021/01/09 08:31:08;;;;;;;3.77;3.17;;;18.50;56.00;;;;;;10475578;28;20219;-57
2021/01/09 08:36:30;;;;;;;23.63;4.33;;;18.60;52.60;;;;;;10492874;28;20780;-52
2021/01/09 08:41:53;;;;;;;8.70;3.43;;;18.60;54.10;;;;;;10415265;28;20855;-49
2021/01/09 08:47:15;;;;;;;7.30;3.73;;;18.80;50.10;;;;;;10480303;28;20225;-51
2021/01/09 08:52:38;;;;;;;13.83;3.70;;;18.70;48.60;;;;;;10486103;28;20216;-49
2021/01/09 08:58:00;;;;;;;6.60;5.90;;;18.70;48.60;;;;;;10493383;28;20231;-53
2021/01/09 09:03:23;;;;;;;8.07;7.27;;;18.60;41.30;;;;;;10497118;28;20660;-48
